Aérodrome :
LOGIN :

S'inscrire | Disclaimer

   EN    FR    IT 

 










Légende :    VFR   VFR Marginal   IFR   IFR Intensif   IFR Très Intensif
Visi : 
Plafond : 
>= 8 km
>= 3000ft
5 à 8 km
1000 à 3000 ft
1500m à 5 km
500 à 1000 ft
800 à 1500m
200 à 500 ft
< 800m
< 200 ft
Symboles :   Orages  Brouillard  Fortes neiges  Fortes précipitations  Vent > 20 kt
SIGMETs :   Divers  Orages  Givrage  Turbulence  Onde Orograph.  Cendres Volcan.







- Altitude de l'aérodrome : 616 ft
- Code IATA : PUF
- Voir les cartes d'approche


LFBP - Pau

DERNIER METAR :
  • 131630Z AUTO 26007KT 9999 BKN050 BKN070 BKN100 13/03 Q1016 TEMPO 3000 -RA

METARs EXPIRÉS :
  • 131600Z AUTO 25008KT 9999 BKN058 BKN070 OVC086 13/03 Q1016 NOSIG
  • 131530Z AUTO 25006KT 220V290 9999 BKN078 BKN092 13/05 Q1016 NOSIG
  • 131500Z AUTO 24007KT 9999 BKN080 OVC100 13/05 Q1016 NOSIG
  • 131430Z AUTO 26011KT 9999 BKN098 13/05 Q1017 NOSIG
  • 131400Z AUTO 26011KT 230V290 9999 FEW050 BKN098 BKN210 13/05 Q1017 NOSIG

TAF TAF LFBP
Valide du 13 à 12h jusqu'au 14 à 12h UTC


131100Z 1312/1412 24008KT 9999 BKN025 BKN065
TEMPO 1318/1409 3000 -RA BKN015
Pas de NOTAMs connus pour ce terrain.
1 SIGMET publié pour la FIR Bordeaux (LFBB) :
 
Turbulence forte
LFBB SIGMET 1 VALID 131600/132000 LFPW
LFBB BORDEAUX FIR/UIR SEV TURB FCST WI N4445 W00145 - N4630 W00130 - N4630 W00015 - N4715 W00015 - N4715 E00200 - N4700 E00215 - N4545 E00130 - N4445 W00145 SFC/FL050 MOV E 40KT INTSF=



MET'MAP, la Météo Aéronautique d'un coup d'oeil ! - Copyright ORBIFLY Décembre 2007 - Disclaimer

ORBIFLY MET'MAP TEAM :

Programmation & Développement : Alexandra Zaïnal
Conception & Développement : Baudouin d'Aumeries
Co-Programmation & Développement : Marc-Olivier Méhu
Soutien technique & logistique : Manuel Goepfert

Contact : metmap@orbifly.com




SOURCES & CREDITS :

   NOAA